sensor_id;sensor_type;location;lat;lon;timestamp;P1;durP1;ratioP1;P2;durP2;ratioP2
18286;SDS011;9269;50.838;12.094;2022-10-30T00:01:08;9.87;;;7.60;;
18286;SDS011;9269;50.838;12.094;2022-10-30T00:03:41;13.27;;;7.53;;
18286;SDS011;9269;50.838;12.094;2022-10-30T00:06:09;8.93;;;7.57;;
18286;SDS011;9269;50.838;12.094;2022-10-30T00:08:38;10.30;;;7.40;;
18286;SDS011;9269;50.838;12.094;2022-10-30T00:11:06;9.63;;;6.73;;
18286;SDS011;9269;50.838;12.094;2022-10-30T00:13:37;12.37;;;7.77;;
18286;SDS011;9269;50.838;12.094;2022-10-30T00:16:19;11.73;;;6.77;;
18286;SDS011;9269;50.838;12.094;2022-10-30T00:18:47;13.27;;;7.47;;
18286;SDS011;9269;50.838;12.094;2022-10-30T00:21:16;11.60;;;6.97;;
18286;SDS011;9269;50.838;12.094;2022-10-30T00:23:46;13.10;;;7.53;;
18286;SDS011;9269;50.838;12.094;2022-10-30T00:26:16;12.23;;;7.53;;
18286;SDS011;9269;50.838;12.094;2022-10-30T00:28:51;9.63;;;7.13;;
18286;SDS011;9269;50.838;12.094;2022-10-30T00:31:21;12.80;;;7.87;;
18286;SDS011;9269;50.838;12.094;2022-10-30T00:33:52;11.20;;;7.47;;
18286;SDS011;9269;50.838;12.094;2022-10-30T00:36:21;9.27;;;7.20;;
18286;SDS011;9269;50.838;12.094;2022-10-30T00:38:51;12.00;;;7.37;;
18286;SDS011;9269;50.838;12.094;2022-10-30T00:41:21;12.30;;;8.10;;
18286;SDS011;9269;50.838;12.094;2022-10-30T00:43:51;11.30;;;7.47;;
18286;SDS011;9269;50.838;12.094;2022-10-30T00:46:23;11.87;;;7.37;;
18286;SDS011;9269;50.838;12.094;2022-10-30T00:48:57;12.37;;;7.00;;
18286;SDS011;9269;50.838;12.094;2022-10-30T00:51:28;9.30;;;7.10;;
18286;SDS011;9269;50.838;12.094;2022-10-30T00:54:02;9.47;;;6.93;;
18286;SDS011;9269;50.838;12.094;2022-10-30T00:56:34;9.83;;;7.30;;
18286;SDS011;9269;50.838;12.094;2022-10-30T00:59:07;10.23;;;6.67;;
18286;SDS011;9269;50.838;12.094;2022-10-30T01:01:39;10.23;;;6.40;;
18286;SDS011;9269;50.838;12.094;2022-10-30T01:04:11;8.30;;;6.33;;
18286;SDS011;9269;50.838;12.094;2022-10-30T01:06:44;11.57;;;7.17;;
18286;SDS011;9269;50.838;12.094;2022-10-30T01:09:20;8.67;;;6.20;;
18286;SDS011;9269;50.838;12.094;2022-10-30T01:11:49;9.70;;;6.83;;
18286;SDS011;9269;50.838;12.094;2022-10-30T01:14:18;10.57;;;6.57;;
18286;SDS011;9269;50.838;12.094;2022-10-30T01:17:03;8.33;;;7.40;;
18286;SDS011;9269;50.838;12.094;2022-10-30T01:20:02;11.70;;;6.70;;
18286;SDS011;9269;50.838;12.094;2022-10-30T01:22:39;11.53;;;6.80;;
18286;SDS011;9269;50.838;12.094;2022-10-30T01:25:21;11.10;;;6.87;;
18286;SDS011;9269;50.838;12.094;2022-10-30T01:28:13;12.93;;;7.20;;
18286;SDS011;9269;50.838;12.094;2022-10-30T01:31:00;10.13;;;6.57;;
18286;SDS011;9269;50.838;12.094;2022-10-30T01:33:39;11.87;;;6.37;;
18286;SDS011;9269;50.838;12.094;2022-10-30T01:36:20;13.43;;;7.20;;
18286;SDS011;9269;50.838;12.094;2022-10-30T01:38:54;12.37;;;6.80;;
18286;SDS011;9269;50.838;12.094;2022-10-30T01:41:26;8.40;;;6.27;;
18286;SDS011;9269;50.838;12.094;2022-10-30T01:43:56;9.20;;;6.00;;
18286;SDS011;9269;50.838;12.094;2022-10-30T01:49:25;12.80;;;6.30;;
18286;SDS011;9269;50.838;12.094;2022-10-30T01:52:05;8.33;;;6.20;;
18286;SDS011;9269;50.838;12.094;2022-10-30T01:54:41;10.00;;;5.97;;
18286;SDS011;9269;50.838;12.094;2022-10-30T01:57:17;9.43;;;5.93;;
18286;SDS011;9269;50.838;12.094;2022-10-30T01:59:59;10.83;;;6.37;;
18286;SDS011;9269;50.838;12.094;2022-10-30T02:02:31;11.23;;;6.70;;
18286;SDS011;9269;50.838;12.094;2022-10-30T02:05:03;10.53;;;6.80;;
18286;SDS011;9269;50.838;12.094;2022-10-30T02:07:34;13.00;;;6.40;;
18286;SDS011;9269;50.838;12.094;2022-10-30T02:10:03;7.80;;;5.90;;
18286;SDS011;9269;50.838;12.094;2022-10-30T02:12:33;12.60;;;6.17;;
18286;SDS011;9269;50.838;12.094;2022-10-30T02:15:02;9.83;;;5.70;;
18286;SDS011;9269;50.838;12.094;2022-10-30T02:17:31;7.67;;;6.13;;
18286;SDS011;9269;50.838;12.094;2022-10-30T02:20:01;10.77;;;6.07;;
18286;SDS011;9269;50.838;12.094;2022-10-30T02:22:31;8.17;;;6.03;;
18286;SDS011;9269;50.838;12.094;2022-10-30T02:25:00;13.03;;;6.37;;
18286;SDS011;9269;50.838;12.094;2022-10-30T02:27:28;8.90;;;5.77;;
18286;SDS011;9269;50.838;12.094;2022-10-30T02:29:57;8.97;;;6.20;;
18286;SDS011;9269;50.838;12.094;2022-10-30T02:32:26;10.23;;;6.53;;
18286;SDS011;9269;50.838;12.094;2022-10-30T02:34:54;9.73;;;6.03;;
18286;SDS011;9269;50.838;12.094;2022-10-30T02:37:23;7.53;;;5.40;;
18286;SDS011;9269;50.838;12.094;2022-10-30T02:39:52;12.50;;;5.90;;
18286;SDS011;9269;50.838;12.094;2022-10-30T02:42:21;10.50;;;6.27;;
18286;SDS011;9269;50.838;12.094;2022-10-30T02:44:50;13.50;;;7.20;;
18286;SDS011;9269;50.838;12.094;2022-10-30T02:47:18;12.97;;;6.70;;
18286;SDS011;9269;50.838;12.094;2022-10-30T02:49:50;11.77;;;7.13;;
18286;SDS011;9269;50.838;12.094;2022-10-30T02:52:23;11.20;;;6.53;;
18286;SDS011;9269;50.838;12.094;2022-10-30T02:54:53;12.43;;;7.63;;
18286;SDS011;9269;50.838;12.094;2022-10-30T02:57:21;10.43;;;6.57;;
18286;SDS011;9269;50.838;12.094;2022-10-30T02:59:50;8.43;;;6.70;;
18286;SDS011;9269;50.838;12.094;2022-10-30T03:02:18;11.77;;;7.20;;
18286;SDS011;9269;50.838;12.094;2022-10-30T03:04:47;13.80;;;6.97;;
18286;SDS011;9269;50.838;12.094;2022-10-30T03:07:15;11.00;;;6.87;;
18286;SDS011;9269;50.838;12.094;2022-10-30T03:09:45;9.13;;;6.63;;
18286;SDS011;9269;50.838;12.094;2022-10-30T03:12:15;10.30;;;6.57;;
18286;SDS011;9269;50.838;12.094;2022-10-30T03:14:44;7.60;;;6.07;;
18286;SDS011;9269;50.838;12.094;2022-10-30T03:17:13;11.53;;;6.50;;
18286;SDS011;9269;50.838;12.094;2022-10-30T03:19:41;9.10;;;5.80;;
18286;SDS011;9269;50.838;12.094;2022-10-30T03:22:10;9.93;;;6.17;;
18286;SDS011;9269;50.838;12.094;2022-10-30T03:24:41;10.00;;;6.00;;
18286;SDS011;9269;50.838;12.094;2022-10-30T03:27:10;11.10;;;6.07;;
18286;SDS011;9269;50.838;12.094;2022-10-30T03:29:40;9.67;;;5.97;;
18286;SDS011;9269;50.838;12.094;2022-10-30T03:32:08;7.37;;;5.20;;
18286;SDS011;9269;50.838;12.094;2022-10-30T03:34:37;11.47;;;5.93;;
18286;SDS011;9269;50.838;12.094;2022-10-30T03:37:05;9.30;;;6.13;;
18286;SDS011;9269;50.838;12.094;2022-10-30T03:39:34;8.23;;;5.60;;
18286;SDS011;9269;50.838;12.094;2022-10-30T03:42:02;5.20;;;4.70;;
18286;SDS011;9269;50.838;12.094;2022-10-30T03:44:31;10.77;;;5.90;;
18286;SDS011;9269;50.838;12.094;2022-10-30T03:47:01;12.33;;;5.67;;
18286;SDS011;9269;50.838;12.094;2022-10-30T03:49:29;13.53;;;6.50;;
18286;SDS011;9269;50.838;12.094;2022-10-30T03:51:58;9.50;;;5.80;;
18286;SDS011;9269;50.838;12.094;2022-10-30T03:54:27;10.47;;;5.80;;
18286;SDS011;9269;50.838;12.094;2022-10-30T03:56:55;13.13;;;6.60;;
18286;SDS011;9269;50.838;12.094;2022-10-30T03:59:26;11.67;;;6.57;;
18286;SDS011;9269;50.838;12.094;2022-10-30T04:01:55;11.53;;;7.03;;
18286;SDS011;9269;50.838;12.094;2022-10-30T04:04:28;10.13;;;6.33;;
18286;SDS011;9269;50.838;12.094;2022-10-30T04:06:56;9.03;;;5.50;;
18286;SDS011;9269;50.838;12.094;2022-10-30T04:09:25;9.77;;;5.97;;
18286;SDS011;9269;50.838;12.094;2022-10-30T04:11:53;8.07;;;5.57;;
18286;SDS011;9269;50.838;12.094;2022-10-30T04:14:22;9.90;;;5.43;;
18286;SDS011;9269;50.838;12.094;2022-10-30T04:16:50;8.23;;;5.77;;
18286;SDS011;9269;50.838;12.094;2022-10-30T04:19:19;10.77;;;6.10;;
18286;SDS011;9269;50.838;12.094;2022-10-30T04:21:48;10.70;;;5.70;;
18286;SDS011;9269;50.838;12.094;2022-10-30T04:24:17;7.90;;;5.60;;
18286;SDS011;9269;50.838;12.094;2022-10-30T04:26:45;7.80;;;5.73;;
18286;SDS011;9269;50.838;12.094;2022-10-30T04:29:14;9.00;;;6.17;;
18286;SDS011;9269;50.838;12.094;2022-10-30T04:31:42;16.10;;;5.73;;
18286;SDS011;9269;50.838;12.094;2022-10-30T04:34:11;11.57;;;6.00;;
18286;SDS011;9269;50.838;12.094;2022-10-30T04:36:39;8.47;;;6.00;;
18286;SDS011;9269;50.838;12.094;2022-10-30T04:39:09;9.80;;;5.37;;
18286;SDS011;9269;50.838;12.094;2022-10-30T04:41:38;8.20;;;5.63;;
18286;SDS011;9269;50.838;12.094;2022-10-30T04:44:06;8.30;;;5.57;;
18286;SDS011;9269;50.838;12.094;2022-10-30T04:46:35;7.97;;;5.50;;
18286;SDS011;9269;50.838;12.094;2022-10-30T04:49:03;8.53;;;5.20;;
18286;SDS011;9269;50.838;12.094;2022-10-30T04:51:32;9.13;;;5.73;;
18286;SDS011;9269;50.838;12.094;2022-10-30T04:54:01;10.30;;;5.47;;
18286;SDS011;9269;50.838;12.094;2022-10-30T04:56:30;6.47;;;5.17;;
18286;SDS011;9269;50.838;12.094;2022-10-30T04:58:59;11.87;;;5.77;;
18286;SDS011;9269;50.838;12.094;2022-10-30T05:01:28;8.77;;;5.57;;
18286;SDS011;9269;50.838;12.094;2022-10-30T05:03:56;7.80;;;5.30;;
18286;SDS011;9269;50.838;12.094;2022-10-30T05:06:25;8.43;;;5.80;;
18286;SDS011;9269;50.838;12.094;2022-10-30T05:08:56;10.50;;;5.50;;
18286;SDS011;9269;50.838;12.094;2022-10-30T05:11:24;9.50;;;5.70;;
18286;SDS011;9269;50.838;12.094;2022-10-30T05:13:58;11.70;;;6.80;;
18286;SDS011;9269;50.838;12.094;2022-10-30T05:16:26;14.20;;;9.47;;
18286;SDS011;9269;50.838;12.094;2022-10-30T05:18:54;12.40;;;7.23;;
18286;SDS011;9269;50.838;12.094;2022-10-30T05:21:23;12.93;;;7.20;;
18286;SDS011;9269;50.838;12.094;2022-10-30T05:23:51;10.77;;;6.40;;
18286;SDS011;9269;50.838;12.094;2022-10-30T05:26:20;9.03;;;6.60;;
18286;SDS011;9269;50.838;12.094;2022-10-30T05:28:49;10.93;;;6.20;;
18286;SDS011;9269;50.838;12.094;2022-10-30T05:31:19;9.33;;;5.27;;
18286;SDS011;9269;50.838;12.094;2022-10-30T05:33:47;10.57;;;5.13;;
18286;SDS011;9269;50.838;12.094;2022-10-30T05:36:16;12.07;;;5.40;;
18286;SDS011;9269;50.838;12.094;2022-10-30T05:38:44;11.30;;;5.20;;
18286;SDS011;9269;50.838;12.094;2022-10-30T05:41:13;12.27;;;5.23;;
18286;SDS011;9269;50.838;12.094;2022-10-30T05:43:41;8.47;;;5.73;;
18286;SDS011;9269;50.838;12.094;2022-10-30T05:46:10;10.23;;;5.43;;
18286;SDS011;9269;50.838;12.094;2022-10-30T05:48:40;10.23;;;5.03;;
18286;SDS011;9269;50.838;12.094;2022-10-30T05:51:11;11.67;;;5.47;;
18286;SDS011;9269;50.838;12.094;2022-10-30T05:53:39;14.73;;;7.10;;
18286;SDS011;9269;50.838;12.094;2022-10-30T05:56:08;9.50;;;7.23;;
18286;SDS011;9269;50.838;12.094;2022-10-30T05:58:36;12.97;;;6.83;;
18286;SDS011;9269;50.838;12.094;2022-10-30T06:01:05;9.90;;;6.17;;
18286;SDS011;9269;50.838;12.094;2022-10-30T06:03:34;8.73;;;5.90;;
18286;SDS011;9269;50.838;12.094;2022-10-30T06:06:04;12.60;;;6.50;;
18286;SDS011;9269;50.838;12.094;2022-10-30T06:08:32;9.63;;;6.37;;
18286;SDS011;9269;50.838;12.094;2022-10-30T06:11:01;11.53;;;5.33;;
18286;SDS011;9269;50.838;12.094;2022-10-30T06:13:29;9.90;;;5.13;;
18286;SDS011;9269;50.838;12.094;2022-10-30T06:15:58;11.67;;;5.90;;
18286;SDS011;9269;50.838;12.094;2022-10-30T06:18:26;10.70;;;5.90;;
18286;SDS011;9269;50.838;12.094;2022-10-30T06:20:57;7.80;;;4.50;;
18286;SDS011;9269;50.838;12.094;2022-10-30T06:23:29;8.00;;;4.70;;
18286;SDS011;9269;50.838;12.094;2022-10-30T06:25:57;7.73;;;4.63;;
18286;SDS011;9269;50.838;12.094;2022-10-30T06:28:27;10.27;;;4.87;;
18286;SDS011;9269;50.838;12.094;2022-10-30T06:30:55;10.30;;;4.87;;
18286;SDS011;9269;50.838;12.094;2022-10-30T06:33:26;10.50;;;5.00;;
18286;SDS011;9269;50.838;12.094;2022-10-30T06:35:55;8.47;;;4.47;;
18286;SDS011;9269;50.838;12.094;2022-10-30T06:38:24;11.17;;;4.60;;
18286;SDS011;9269;50.838;12.094;2022-10-30T06:40:54;10.90;;;5.80;;
18286;SDS011;9269;50.838;12.094;2022-10-30T06:43:26;10.43;;;5.60;;
18286;SDS011;9269;50.838;12.094;2022-10-30T06:45:56;7.20;;;4.80;;
18286;SDS011;9269;50.838;12.094;2022-10-30T06:48:28;13.07;;;5.93;;
18286;SDS011;9269;50.838;12.094;2022-10-30T06:50:59;9.63;;;4.97;;
18286;SDS011;9269;50.838;12.094;2022-10-30T06:53:29;10.67;;;4.93;;
18286;SDS011;9269;50.838;12.094;2022-10-30T06:55:59;9.80;;;4.87;;
18286;SDS011;9269;50.838;12.094;2022-10-30T06:58:28;10.03;;;5.10;;
18286;SDS011;9269;50.838;12.094;2022-10-30T07:00:58;10.03;;;4.73;;
18286;SDS011;9269;50.838;12.094;2022-10-30T07:03:27;9.63;;;4.57;;
18286;SDS011;9269;50.838;12.094;2022-10-30T07:05:56;9.87;;;4.50;;
18286;SDS011;9269;50.838;12.094;2022-10-30T07:08:24;10.37;;;4.83;;
18286;SDS011;9269;50.838;12.094;2022-10-30T07:10:54;10.10;;;4.57;;
18286;SDS011;9269;50.838;12.094;2022-10-30T07:13:25;7.70;;;4.53;;
18286;SDS011;9269;50.838;12.094;2022-10-30T07:15:56;8.93;;;4.57;;
18286;SDS011;9269;50.838;12.094;2022-10-30T07:18:25;9.17;;;5.30;;
18286;SDS011;9269;50.838;12.094;2022-10-30T07:20:53;8.97;;;5.23;;
18286;SDS011;9269;50.838;12.094;2022-10-30T07:23:25;9.50;;;4.97;;
18286;SDS011;9269;50.838;12.094;2022-10-30T07:25:53;10.80;;;6.60;;
18286;SDS011;9269;50.838;12.094;2022-10-30T07:28:31;7.83;;;5.73;;
18286;SDS011;9269;50.838;12.094;2022-10-30T07:30:59;10.47;;;6.40;;
18286;SDS011;9269;50.838;12.094;2022-10-30T07:33:33;10.60;;;8.10;;
18286;SDS011;9269;50.838;12.094;2022-10-30T07:36:04;9.43;;;6.50;;
18286;SDS011;9269;50.838;12.094;2022-10-30T07:38:34;10.33;;;6.53;;
18286;SDS011;9269;50.838;12.094;2022-10-30T07:41:04;11.70;;;7.00;;
18286;SDS011;9269;50.838;12.094;2022-10-30T07:43:34;9.67;;;5.70;;
18286;SDS011;9269;50.838;12.094;2022-10-30T07:46:03;10.70;;;6.10;;
18286;SDS011;9269;50.838;12.094;2022-10-30T07:48:35;10.63;;;5.87;;
18286;SDS011;9269;50.838;12.094;2022-10-30T07:51:06;16.10;;;10.20;;
18286;SDS011;9269;50.838;12.094;2022-10-30T07:53:36;21.30;;;13.50;;
18286;SDS011;9269;50.838;12.094;2022-10-30T07:56:05;19.60;;;11.47;;
18286;SDS011;9269;50.838;12.094;2022-10-30T07:58:40;14.57;;;8.07;;
18286;SDS011;9269;50.838;12.094;2022-10-30T08:01:11;12.53;;;8.17;;
18286;SDS011;9269;50.838;12.094;2022-10-30T08:03:44;12.20;;;7.67;;
18286;SDS011;9269;50.838;12.094;2022-10-30T08:06:12;15.50;;;7.17;;
18286;SDS011;9269;50.838;12.094;2022-10-30T08:08:41;13.23;;;8.80;;
18286;SDS011;9269;50.838;12.094;2022-10-30T08:11:09;12.40;;;8.27;;
18286;SDS011;9269;50.838;12.094;2022-10-30T08:13:42;16.57;;;8.83;;
18286;SDS011;9269;50.838;12.094;2022-10-30T08:16:10;15.73;;;10.10;;
18286;SDS011;9269;50.838;12.094;2022-10-30T08:18:40;15.57;;;8.23;;
18286;SDS011;9269;50.838;12.094;2022-10-30T08:21:09;12.40;;;8.00;;
18286;SDS011;9269;50.838;12.094;2022-10-30T08:23:37;13.00;;;6.93;;
18286;SDS011;9269;50.838;12.094;2022-10-30T08:26:08;10.83;;;6.67;;
18286;SDS011;9269;50.838;12.094;2022-10-30T08:28:37;9.77;;;6.87;;
18286;SDS011;9269;50.838;12.094;2022-10-30T08:31:07;11.50;;;6.57;;
18286;SDS011;9269;50.838;12.094;2022-10-30T08:33:35;13.40;;;6.53;;
18286;SDS011;9269;50.838;12.094;2022-10-30T08:36:04;10.50;;;5.97;;
18286;SDS011;9269;50.838;12.094;2022-10-30T08:38:34;8.97;;;5.67;;
18286;SDS011;9269;50.838;12.094;2022-10-30T08:41:02;7.53;;;5.00;;
18286;SDS011;9269;50.838;12.094;2022-10-30T08:43:31;8.40;;;5.00;;
18286;SDS011;9269;50.838;12.094;2022-10-30T08:46:00;8.93;;;5.23;;
18286;SDS011;9269;50.838;12.094;2022-10-30T08:48:30;8.33;;;5.43;;
18286;SDS011;9269;50.838;12.094;2022-10-30T08:50:59;7.73;;;4.90;;
18286;SDS011;9269;50.838;12.094;2022-10-30T08:53:29;9.60;;;4.80;;
18286;SDS011;9269;50.838;12.094;2022-10-30T08:56:00;9.20;;;4.97;;
18286;SDS011;9269;50.838;12.094;2022-10-30T08:58:28;10.20;;;5.43;;
18286;SDS011;9269;50.838;12.094;2022-10-30T09:00:57;10.13;;;5.47;;
18286;SDS011;9269;50.838;12.094;2022-10-30T09:03:28;10.43;;;5.00;;
18286;SDS011;9269;50.838;12.094;2022-10-30T09:05:59;9.33;;;4.73;;
18286;SDS011;9269;50.838;12.094;2022-10-30T09:08:27;10.17;;;4.83;;
18286;SDS011;9269;50.838;12.094;2022-10-30T09:10:59;8.70;;;5.30;;
18286;SDS011;9269;50.838;12.094;2022-10-30T09:13:28;8.63;;;4.80;;
18286;SDS011;9269;50.838;12.094;2022-10-30T09:15:58;6.67;;;4.77;;
18286;SDS011;9269;50.838;12.094;2022-10-30T09:18:29;9.13;;;5.27;;
18286;SDS011;9269;50.838;12.094;2022-10-30T09:21:02;8.43;;;5.00;;
18286;SDS011;9269;50.838;12.094;2022-10-30T09:23:31;8.63;;;5.00;;
18286;SDS011;9269;50.838;12.094;2022-10-30T09:26:00;9.93;;;4.70;;
18286;SDS011;9269;50.838;12.094;2022-10-30T09:28:28;9.70;;;5.03;;
18286;SDS011;9269;50.838;12.094;2022-10-30T09:30:57;8.13;;;5.20;;
18286;SDS011;9269;50.838;12.094;2022-10-30T09:33:27;6.50;;;4.57;;
18286;SDS011;9269;50.838;12.094;2022-10-30T09:35:56;11.83;;;5.97;;
18286;SDS011;9269;50.838;12.094;2022-10-30T09:38:25;8.60;;;4.60;;
18286;SDS011;9269;50.838;12.094;2022-10-30T09:41:00;8.27;;;5.17;;
18286;SDS011;9269;50.838;12.094;2022-10-30T09:43:47;7.30;;;5.27;;
18286;SDS011;9269;50.838;12.094;2022-10-30T09:46:32;8.50;;;5.20;;
18286;SDS011;9269;50.838;12.094;2022-10-30T09:49:22;9.83;;;5.00;;
18286;SDS011;9269;50.838;12.094;2022-10-30T09:57:53;10.10;;;4.83;;
18286;SDS011;9269;50.838;12.094;2022-10-30T10:00:32;7.70;;;4.70;;
18286;SDS011;9269;50.838;12.094;2022-10-30T10:03:09;8.57;;;4.90;;
18286;SDS011;9269;50.838;12.094;2022-10-30T10:05:55;7.93;;;4.83;;
18286;SDS011;9269;50.838;12.094;2022-10-30T10:08:27;10.03;;;5.07;;
18286;SDS011;9269;50.838;12.094;2022-10-30T10:11:04;8.60;;;4.63;;
18286;SDS011;9269;50.838;12.094;2022-10-30T10:13:44;10.50;;;4.60;;
18286;SDS011;9269;50.838;12.094;2022-10-30T10:16:20;10.60;;;5.23;;
18286;SDS011;9269;50.838;12.094;2022-10-30T10:18:55;8.43;;;4.87;;
18286;SDS011;9269;50.838;12.094;2022-10-30T10:21:30;11.07;;;4.90;;
18286;SDS011;9269;50.838;12.094;2022-10-30T10:24:12;7.67;;;4.70;;
18286;SDS011;9269;50.838;12.094;2022-10-30T10:26:48;10.07;;;4.60;;
18286;SDS011;9269;50.838;12.094;2022-10-30T10:29:24;8.27;;;5.30;;
18286;SDS011;9269;50.838;12.094;2022-10-30T10:32:04;7.83;;;4.73;;
18286;SDS011;9269;50.838;12.094;2022-10-30T10:34:52;7.80;;;4.97;;
18286;SDS011;9269;50.838;12.094;2022-10-30T10:37:36;6.90;;;4.23;;
18286;SDS011;9269;50.838;12.094;2022-10-30T10:40:15;8.37;;;4.73;;
18286;SDS011;9269;50.838;12.094;2022-10-30T10:43:00;10.00;;;5.07;;
18286;SDS011;9269;50.838;12.094;2022-10-30T10:45:40;9.57;;;4.40;;
18286;SDS011;9269;50.838;12.094;2022-10-30T10:51:12;7.73;;;4.40;;
18286;SDS011;9269;50.838;12.094;2022-10-30T10:53:43;11.10;;;5.37;;
18286;SDS011;9269;50.838;12.094;2022-10-30T10:56:15;11.37;;;4.77;;
18286;SDS011;9269;50.838;12.094;2022-10-30T10:58:48;10.17;;;4.93;;
18286;SDS011;9269;50.838;12.094;2022-10-30T11:01:19;7.13;;;4.37;;
18286;SDS011;9269;50.838;12.094;2022-10-30T11:03:55;9.07;;;4.43;;
18286;SDS011;9269;50.838;12.094;2022-10-30T11:06:27;9.07;;;4.87;;
18286;SDS011;9269;50.838;12.094;2022-10-30T11:09:01;8.23;;;4.73;;
18286;SDS011;9269;50.838;12.094;2022-10-30T11:11:42;9.57;;;4.73;;
18286;SDS011;9269;50.838;12.094;2022-10-30T11:14:13;8.57;;;4.80;;
18286;SDS011;9269;50.838;12.094;2022-10-30T11:16:48;10.73;;;4.93;;
18286;SDS011;9269;50.838;12.094;2022-10-30T11:19:22;6.87;;;4.10;;
18286;SDS011;9269;50.838;12.094;2022-10-30T11:21:51;8.83;;;4.53;;
18286;SDS011;9269;50.838;12.094;2022-10-30T11:24:26;9.10;;;4.83;;
18286;SDS011;9269;50.838;12.094;2022-10-30T11:27:14;8.40;;;4.53;;
18286;SDS011;9269;50.838;12.094;2022-10-30T11:29:50;8.67;;;3.97;;
18286;SDS011;9269;50.838;12.094;2022-10-30T11:32:24;8.10;;;4.80;;
18286;SDS011;9269;50.838;12.094;2022-10-30T11:35:00;8.40;;;4.53;;
18286;SDS011;9269;50.838;12.094;2022-10-30T11:37:38;10.10;;;4.87;;
18286;SDS011;9269;50.838;12.094;2022-10-30T11:40:16;12.27;;;5.47;;
18286;SDS011;9269;50.838;12.094;2022-10-30T11:42:46;10.80;;;5.77;;
18286;SDS011;9269;50.838;12.094;2022-10-30T11:45:18;12.73;;;5.27;;
18286;SDS011;9269;50.838;12.094;2022-10-30T11:47:53;11.27;;;4.97;;
18286;SDS011;9269;50.838;12.094;2022-10-30T11:50:33;8.13;;;4.60;;
18286;SDS011;9269;50.838;12.094;2022-10-30T11:53:08;10.13;;;4.60;;
18286;SDS011;9269;50.838;12.094;2022-10-30T11:55:39;7.80;;;4.40;;
18286;SDS011;9269;50.838;12.094;2022-10-30T11:58:19;7.40;;;4.93;;
18286;SDS011;9269;50.838;12.094;2022-10-30T12:01:01;7.90;;;5.27;;
18286;SDS011;9269;50.838;12.094;2022-10-30T12:03:34;10.07;;;5.53;;
18286;SDS011;9269;50.838;12.094;2022-10-30T12:06:07;9.30;;;4.87;;
18286;SDS011;9269;50.838;12.094;2022-10-30T12:08:37;14.43;;;5.90;;
18286;SDS011;9269;50.838;12.094;2022-10-30T12:11:09;7.37;;;4.50;;
18286;SDS011;9269;50.838;12.094;2022-10-30T12:13:38;10.43;;;4.77;;
18286;SDS011;9269;50.838;12.094;2022-10-30T12:16:16;7.80;;;4.73;;
18286;SDS011;9269;50.838;12.094;2022-10-30T12:18:53;10.67;;;5.37;;
18286;SDS011;9269;50.838;12.094;2022-10-30T12:21:29;9.37;;;5.20;;
18286;SDS011;9269;50.838;12.094;2022-10-30T12:24:11;13.53;;;5.13;;
18286;SDS011;9269;50.838;12.094;2022-10-30T12:26:47;10.80;;;5.67;;
18286;SDS011;9269;50.838;12.094;2022-10-30T12:29:18;13.27;;;5.23;;
18286;SDS011;9269;50.838;12.094;2022-10-30T12:32:13;9.67;;;4.97;;
18286;SDS011;9269;50.838;12.094;2022-10-30T12:34:45;9.67;;;5.23;;
18286;SDS011;9269;50.838;12.094;2022-10-30T12:37:23;9.70;;;5.57;;
18286;SDS011;9269;50.838;12.094;2022-10-30T12:39:57;8.77;;;4.47;;
18286;SDS011;9269;50.838;12.094;2022-10-30T12:42:30;8.50;;;4.03;;
18286;SDS011;9269;50.838;12.094;2022-10-30T12:45:06;8.57;;;4.70;;
18286;SDS011;9269;50.838;12.094;2022-10-30T12:47:42;11.40;;;4.77;;
18286;SDS011;9269;50.838;12.094;2022-10-30T12:50:17;11.53;;;6.40;;
18286;SDS011;9269;50.838;12.094;2022-10-30T12:52:54;7.10;;;4.53;;
18286;SDS011;9269;50.838;12.094;2022-10-30T12:55:28;10.67;;;4.87;;
18286;SDS011;9269;50.838;12.094;2022-10-30T12:58:02;7.97;;;4.40;;
18286;SDS011;9269;50.838;12.094;2022-10-30T13:00:38;8.97;;;4.00;;
18286;SDS011;9269;50.838;12.094;2022-10-30T13:03:19;8.87;;;4.77;;
18286;SDS011;9269;50.838;12.094;2022-10-30T13:05:52;7.77;;;3.90;;
18286;SDS011;9269;50.838;12.094;2022-10-30T13:08:25;8.07;;;4.27;;
18286;SDS011;9269;50.838;12.094;2022-10-30T13:10:58;8.47;;;4.10;;
18286;SDS011;9269;50.838;12.094;2022-10-30T13:13:32;8.57;;;4.50;;
18286;SDS011;9269;50.838;12.094;2022-10-30T13:16:05;7.67;;;3.90;;
18286;SDS011;9269;50.838;12.094;2022-10-30T13:18:40;8.40;;;4.17;;
18286;SDS011;9269;50.838;12.094;2022-10-30T13:21:19;9.97;;;4.30;;
18286;SDS011;9269;50.838;12.094;2022-10-30T13:23:57;9.77;;;3.90;;
18286;SDS011;9269;50.838;12.094;2022-10-30T13:26:31;7.80;;;3.90;;
18286;SDS011;9269;50.838;12.094;2022-10-30T13:29:08;9.93;;;4.07;;
18286;SDS011;9269;50.838;12.094;2022-10-30T13:31:48;8.40;;;3.63;;
18286;SDS011;9269;50.838;12.094;2022-10-30T13:34:28;9.00;;;4.20;;
18286;SDS011;9269;50.838;12.094;2022-10-30T13:37:07;9.50;;;4.80;;
18286;SDS011;9269;50.838;12.094;2022-10-30T13:39:41;7.53;;;4.37;;
18286;SDS011;9269;50.838;12.094;2022-10-30T13:42:18;6.60;;;4.27;;
18286;SDS011;9269;50.838;12.094;2022-10-30T13:44:58;9.17;;;4.50;;
18286;SDS011;9269;50.838;12.094;2022-10-30T13:47:36;7.43;;;4.40;;
18286;SDS011;9269;50.838;12.094;2022-10-30T13:50:27;9.50;;;4.27;;
18286;SDS011;9269;50.838;12.094;2022-10-30T13:53:11;7.03;;;4.67;;
18286;SDS011;9269;50.838;12.094;2022-10-30T13:55:46;6.10;;;3.90;;
18286;SDS011;9269;50.838;12.094;2022-10-30T13:58:18;7.50;;;4.00;;
18286;SDS011;9269;50.838;12.094;2022-10-30T14:00:54;8.77;;;4.03;;
18286;SDS011;9269;50.838;12.094;2022-10-30T14:03:30;10.10;;;4.40;;
18286;SDS011;9269;50.838;12.094;2022-10-30T14:06:16;6.23;;;3.90;;
18286;SDS011;9269;50.838;12.094;2022-10-30T14:08:56;9.47;;;3.87;;
18286;SDS011;9269;50.838;12.094;2022-10-30T14:11:34;6.50;;;3.60;;
18286;SDS011;9269;50.838;12.094;2022-10-30T14:14:03;8.57;;;3.70;;
18286;SDS011;9269;50.838;12.094;2022-10-30T14:17:07;8.67;;;3.93;;
18286;SDS011;9269;50.838;12.094;2022-10-30T14:22:54;8.47;;;4.00;;
18286;SDS011;9269;50.838;12.094;2022-10-30T14:25:34;6.07;;;3.80;;
18286;SDS011;9269;50.838;12.094;2022-10-30T14:28:03;9.17;;;4.27;;
18286;SDS011;9269;50.838;12.094;2022-10-30T14:30:40;8.33;;;3.77;;
18286;SDS011;9269;50.838;12.094;2022-10-30T14:36:19;9.17;;;3.97;;
18286;SDS011;9269;50.838;12.094;2022-10-30T14:38:52;7.33;;;3.87;;
18286;SDS011;9269;50.838;12.094;2022-10-30T14:41:38;8.07;;;3.50;;
18286;SDS011;9269;50.838;12.094;2022-10-30T14:44:36;10.60;;;3.80;;
18286;SDS011;9269;50.838;12.094;2022-10-30T14:47:29;10.20;;;4.37;;
18286;SDS011;9269;50.838;12.094;2022-10-30T14:50:13;8.37;;;4.10;;
18286;SDS011;9269;50.838;12.094;2022-10-30T14:52:55;8.53;;;3.97;;
18286;SDS011;9269;50.838;12.094;2022-10-30T14:55:47;7.27;;;3.77;;
18286;SDS011;9269;50.838;12.094;2022-10-30T14:58:24;4.90;;;3.53;;
18286;SDS011;9269;50.838;12.094;2022-10-30T15:04:04;8.00;;;3.90;;
18286;SDS011;9269;50.838;12.094;2022-10-30T15:06:41;6.07;;;2.97;;
18286;SDS011;9269;50.838;12.094;2022-10-30T15:09:22;6.00;;;3.40;;
18286;SDS011;9269;50.838;12.094;2022-10-30T15:12:04;9.47;;;3.63;;
18286;SDS011;9269;50.838;12.094;2022-10-30T15:14:51;9.50;;;3.67;;
18286;SDS011;9269;50.838;12.094;2022-10-30T15:17:23;9.03;;;3.43;;
18286;SDS011;9269;50.838;12.094;2022-10-30T15:19:55;6.87;;;3.23;;
18286;SDS011;9269;50.838;12.094;2022-10-30T15:22:27;8.00;;;3.63;;
18286;SDS011;9269;50.838;12.094;2022-10-30T15:24:57;7.23;;;3.40;;
18286;SDS011;9269;50.838;12.094;2022-10-30T15:27:27;8.57;;;5.53;;
18286;SDS011;9269;50.838;12.094;2022-10-30T15:29:58;10.80;;;6.17;;
18286;SDS011;9269;50.838;12.094;2022-10-30T15:32:28;17.77;;;16.20;;
18286;SDS011;9269;50.838;12.094;2022-10-30T15:34:57;10.27;;;5.53;;